Time;durP1;ratioP1;P1;durP2;ratioP2;P2;SDS_P1;SDS_P2;PMS_P1;PMS_P2;Temp;Humidity;BMP_temperature;BMP_pressure;BME280_temperature;BME280_humidity;BME280_pressure;Samples;Min_cycle;Max_cycle;Signal;HPM_P1;HPM_P2
2022/03/02 00:00:11;;;;;;;45.00;25.25;;;;;;;;;;4992712;28;20509;-74
2022/03/02 00:02:37;;;;;;;41.47;23.92;;;;;;;;;;5010016;28;20046;-73
2022/03/02 00:05:04;;;;;;;42.03;24.55;;;;;;;;;;5009508;28;20046;-74
2022/03/02 00:07:30;;;;;;;43.03;24.17;;;;;;;;;;4997031;28;20390;-74
2022/03/02 00:09:57;;;;;;;43.42;24.02;;;;;;;;;;5013026;28;20398;-74
2022/03/02 00:12:23;;;;;;;45.10;24.30;;;;;;;;;;5013085;28;20091;-73
2022/03/02 00:14:49;;;;;;;45.40;25.17;;;;;;;;;;5012584;28;20048;-73
2022/03/02 00:17:15;;;;;;;46.65;24.67;;;;;;;;;;4979938;28;20045;-73
2022/03/02 00:19:41;;;;;;;43.63;24.83;;;;;;;;;;5030614;28;20529;-74
2022/03/02 00:22:07;;;;;;;44.05;24.98;;;;;;;;;;5029963;28;20546;-74
2022/03/02 00:24:34;;;;;;;44.05;24.95;;;;;;;;;;5030323;28;20067;-74
2022/03/02 00:27:00;;;;;;;44.08;25.02;;;;;;;;;;5011556;28;20140;-74
2022/03/02 00:29:27;;;;;;;43.70;24.02;;;;;;;;;;5012229;28;20053;-74
2022/03/02 00:31:53;;;;;;;46.25;26.08;;;;;;;;;;4996136;28;20053;-74
2022/03/02 00:34:19;;;;;;;42.83;25.02;;;;;;;;;;4995921;28;20042;-73
2022/03/02 00:36:45;;;;;;;39.47;23.55;;;;;;;;;;5012266;28;20177;-73
2022/03/02 00:39:11;;;;;;;40.83;23.67;;;;;;;;;;5011309;28;20255;-74
2022/03/02 00:41:37;;;;;;;46.92;25.38;;;;;;;;;;5012073;28;20041;-74
2022/03/02 00:44:04;;;;;;;46.47;25.00;;;;;;;;;;4995857;28;20079;-74
2022/03/02 00:46:31;;;;;;;44.83;24.90;;;;;;;;;;5012490;28;20091;-74
2022/03/02 00:48:58;;;;;;;42.70;24.58;;;;;;;;;;5012192;28;20045;-74
2022/03/02 00:51:24;;;;;;;43.88;25.35;;;;;;;;;;5012729;28;20049;-74
2022/03/02 00:53:50;;;;;;;44.15;24.92;;;;;;;;;;5012447;28;20038;-74
2022/03/02 00:56:16;;;;;;;46.05;24.50;;;;;;;;;;5010962;28;20037;-74
2022/03/02 00:58:42;;;;;;;42.95;24.77;;;;;;;;;;4979543;28;20041;-74
2022/03/02 01:01:09;;;;;;;44.25;23.95;;;;;;;;;;5011581;28;20087;-73
2022/03/02 01:03:35;;;;;;;47.13;24.65;;;;;;;;;;5029654;28;20401;-74
2022/03/02 01:06:01;;;;;;;43.92;23.65;;;;;;;;;;5011592;28;20124;-74
2022/03/02 01:08:27;;;;;;;45.38;24.70;;;;;;;;;;5030037;28;20053;-74
2022/03/02 01:10:53;;;;;;;41.85;24.45;;;;;;;;;;5011899;28;20049;-74
2022/03/02 01:13:19;;;;;;;46.15;25.17;;;;;;;;;;5012106;28;20462;-74
2022/03/02 01:15:45;;;;;;;48.15;25.27;;;;;;;;;;5011703;28;20044;-74
2022/03/02 01:18:12;;;;;;;43.90;24.45;;;;;;;;;;4994149;28;20128;-73
2022/03/02 01:20:38;;;;;;;45.50;25.10;;;;;;;;;;5029333;28;20069;-74
2022/03/02 01:23:04;;;;;;;45.35;25.15;;;;;;;;;;5029598;28;20049;-73
2022/03/02 01:25:30;;;;;;;47.58;25.35;;;;;;;;;;5012014;28;20374;-73
2022/03/02 01:27:56;;;;;;;45.65;25.02;;;;;;;;;;5011530;28;20577;-74
2022/03/02 01:30:23;;;;;;;49.85;25.40;;;;;;;;;;4995450;28;20052;-74
2022/03/02 01:32:49;;;;;;;47.50;25.90;;;;;;;;;;5011943;28;20049;-74
2022/03/02 01:35:15;;;;;;;44.28;24.52;;;;;;;;;;5010953;28;20042;-73
2022/03/02 01:37:42;;;;;;;45.40;25.75;;;;;;;;;;5011658;28;20077;-74
2022/03/02 01:40:09;;;;;;;45.65;26.75;;;;;;;;;;5010835;28;20049;-74
2022/03/02 01:42:39;;;;;;;44.17;25.20;;;;;;;;;;4995426;28;20417;-73
2022/03/02 01:45:06;;;;;;;47.72;25.17;;;;;;;;;;5028941;28;20046;-74
2022/03/02 01:47:32;;;;;;;46.55;25.25;;;;;;;;;;5029051;28;20041;-73
2022/03/02 01:49:58;;;;;;;45.47;26.17;;;;;;;;;;5028800;28;20510;-73
2022/03/02 01:52:25;;;;;;;43.60;24.35;;;;;;;;;;5025656;28;20097;-73
2022/03/02 01:54:51;;;;;;;44.47;25.75;;;;;;;;;;5009025;28;20046;-74
2022/03/02 01:57:17;;;;;;;45.88;25.92;;;;;;;;;;4991070;28;20050;-74
2022/03/02 01:59:43;;;;;;;44.38;25.13;;;;;;;;;;4991501;28;20042;-74
2022/03/02 02:02:09;;;;;;;45.10;25.38;;;;;;;;;;4991095;28;20046;-74
2022/03/02 02:04:35;;;;;;;44.05;24.38;;;;;;;;;;4991974;28;20445;-74
2022/03/02 02:07:01;;;;;;;49.85;25.83;;;;;;;;;;5008491;28;20054;-74
2022/03/02 02:09:28;;;;;;;45.80;25.13;;;;;;;;;;5009225;28;20054;-74
2022/03/02 02:11:54;;;;;;;45.95;25.88;;;;;;;;;;4991487;28;20491;-74
2022/03/02 02:14:20;;;;;;;47.03;25.27;;;;;;;;;;4975249;28;20471;-74
2022/03/02 02:16:46;;;;;;;44.78;25.48;;;;;;;;;;4991539;28;20410;-74
2022/03/02 02:19:12;;;;;;;45.63;24.38;;;;;;;;;;4974812;28;20048;-74
2022/03/02 02:21:38;;;;;;;46.88;25.00;;;;;;;;;;5008818;28;20511;-74
2022/03/02 02:24:05;;;;;;;44.97;24.45;;;;;;;;;;5008980;28;20038;-74
2022/03/02 02:26:31;;;;;;;45.53;24.90;;;;;;;;;;4990808;28;20096;-74
2022/03/02 02:28:57;;;;;;;48.30;26.63;;;;;;;;;;5008400;28;20167;-73
2022/03/02 02:31:23;;;;;;;46.60;25.50;;;;;;;;;;5006926;28;20116;-74
2022/03/02 02:33:51;;;;;;;44.97;24.52;;;;;;;;;;5007424;28;20049;-73
2022/03/02 02:36:17;;;;;;;46.83;25.83;;;;;;;;;;5006771;28;20042;-74
2022/03/02 02:38:43;;;;;;;45.97;25.77;;;;;;;;;;5008521;28;20065;-73
2022/03/02 02:41:09;;;;;;;45.72;25.33;;;;;;;;;;5007237;28;20395;-73
2022/03/02 02:43:37;;;;;;;44.35;24.92;;;;;;;;;;5007214;28;20536;-74
2022/03/02 02:46:04;;;;;;;45.33;24.95;;;;;;;;;;4990828;28;20389;-74
2022/03/02 02:48:30;;;;;;;47.63;26.02;;;;;;;;;;4990920;28;20121;-73
2022/03/02 02:50:56;;;;;;;45.85;24.85;;;;;;;;;;5007201;28;20224;-74
2022/03/02 02:53:22;;;;;;;46.85;26.25;;;;;;;;;;5008026;28;20538;-74
2022/03/02 02:55:50;;;;;;;45.35;24.58;;;;;;;;;;5008383;28;20049;-74
2022/03/02 02:58:16;;;;;;;42.17;24.08;;;;;;;;;;5007921;28;20052;-74
2022/03/02 03:00:44;;;;;;;42.45;24.95;;;;;;;;;;5007541;28;20234;-73
2022/03/02 03:03:10;;;;;;;46.83;25.27;;;;;;;;;;5008543;28;20076;-74
2022/03/02 03:05:36;;;;;;;47.03;24.90;;;;;;;;;;5027056;28;20052;-73
2022/03/02 03:08:04;;;;;;;45.88;25.00;;;;;;;;;;5027431;28;20080;-74
2022/03/02 03:10:30;;;;;;;44.97;24.77;;;;;;;;;;5009890;28;20053;-74
2022/03/02 03:12:57;;;;;;;47.63;25.52;;;;;;;;;;4993328;28;20073;-74
2022/03/02 03:15:23;;;;;;;46.40;24.55;;;;;;;;;;5009605;28;20494;-74
2022/03/02 03:17:50;;;;;;;47.25;24.25;;;;;;;;;;5009871;28;20492;-73
2022/03/02 03:20:18;;;;;;;48.88;25.58;;;;;;;;;;5009222;28;20038;-74
2022/03/02 03:22:44;;;;;;;46.33;24.95;;;;;;;;;;5009609;28;20075;-74
2022/03/02 03:25:12;;;;;;;45.30;25.17;;;;;;;;;;4993024;28;20041;-74
2022/03/02 03:27:39;;;;;;;44.58;23.48;;;;;;;;;;5005992;28;20058;-74
2022/03/02 03:30:06;;;;;;;49.40;24.13;;;;;;;;;;5005798;28;20114;-74
2022/03/02 03:32:32;;;;;;;46.63;25.35;;;;;;;;;;5006062;28;20049;-74
2022/03/02 03:34:59;;;;;;;46.10;24.73;;;;;;;;;;5006486;28;20045;-74
2022/03/02 03:37:26;;;;;;;46.63;25.63;;;;;;;;;;4989399;28;20045;-74
2022/03/02 03:39:52;;;;;;;48.90;24.60;;;;;;;;;;5005738;28;20494;-73
2022/03/02 03:42:18;;;;;;;45.20;23.88;;;;;;;;;;4989619;28;20372;-74
2022/03/02 03:44:44;;;;;;;48.10;25.25;;;;;;;;;;4973930;28;20038;-73
2022/03/02 03:47:10;;;;;;;47.05;24.92;;;;;;;;;;4989704;28;20062;-74
2022/03/02 03:49:36;;;;;;;45.10;24.77;;;;;;;;;;5005863;28;20049;-74
2022/03/02 03:52:03;;;;;;;48.53;24.92;;;;;;;;;;5005990;28;20398;-74
2022/03/02 03:54:29;;;;;;;45.97;23.88;;;;;;;;;;5006188;28;20467;-74
2022/03/02 03:56:55;;;;;;;50.50;25.38;;;;;;;;;;5005968;28;20052;-73
2022/03/02 03:59:21;;;;;;;48.08;25.23;;;;;;;;;;5005622;28;20070;-74
2022/03/02 04:01:47;;;;;;;50.38;25.85;;;;;;;;;;5006363;28;20046;-73
2022/03/02 04:04:13;;;;;;;48.05;24.50;;;;;;;;;;5007107;28;20115;-74
2022/03/02 04:06:39;;;;;;;53.35;26.10;;;;;;;;;;5006042;28;20045;-74
2022/03/02 04:09:05;;;;;;;54.45;26.45;;;;;;;;;;5005711;28;20042;-74
2022/03/02 04:11:31;;;;;;;50.05;25.85;;;;;;;;;;5006138;28;20398;-74
2022/03/02 04:13:57;;;;;;;45.13;25.63;;;;;;;;;;5005903;28;20628;-74
2022/03/02 04:16:24;;;;;;;48.08;25.50;;;;;;;;;;5005484;28;20129;-74
2022/03/02 04:18:50;;;;;;;48.58;25.42;;;;;;;;;;4989378;28;20129;-74
2022/03/02 04:21:16;;;;;;;48.90;26.02;;;;;;;;;;5005491;28;20497;-74
2022/03/02 04:23:42;;;;;;;45.28;25.38;;;;;;;;;;5006788;28;20394;-74
2022/03/02 04:26:08;;;;;;;53.17;26.90;;;;;;;;;;5005316;28;20042;-74
2022/03/02 04:28:34;;;;;;;49.38;26.10;;;;;;;;;;5008712;28;20417;-74
2022/03/02 04:31:00;;;;;;;50.20;25.88;;;;;;;;;;5008709;28;20135;-74
2022/03/02 04:33:27;;;;;;;47.95;25.63;;;;;;;;;;5008810;28;20045;-74
2022/03/02 04:35:53;;;;;;;48.00;25.52;;;;;;;;;;5026752;28;20393;-74
2022/03/02 04:38:19;;;;;;;53.22;27.45;;;;;;;;;;5026236;28;20041;-73
2022/03/02 04:40:45;;;;;;;52.40;26.83;;;;;;;;;;5008737;28;20034;-74
2022/03/02 04:43:11;;;;;;;50.83;26.60;;;;;;;;;;5026264;28;20132;-74
2022/03/02 04:45:37;;;;;;;53.20;27.70;;;;;;;;;;5026237;28;20094;-74
2022/03/02 04:48:04;;;;;;;51.08;27.50;;;;;;;;;;5008311;28;20071;-74
2022/03/02 04:50:30;;;;;;;52.85;27.88;;;;;;;;;;5008607;28;20084;-74
2022/03/02 04:52:56;;;;;;;51.78;26.83;;;;;;;;;;5010348;28;20041;-74
2022/03/02 04:55:23;;;;;;;57.65;27.63;;;;;;;;;;5029386;28;20086;-74
2022/03/02 04:57:50;;;;;;;53.90;27.75;;;;;;;;;;5029584;28;20081;-74
2022/03/02 05:00:21;;;;;;;52.05;27.63;;;;;;;;;;5011905;28;20085;-74
2022/03/02 05:02:47;;;;;;;58.63;27.95;;;;;;;;;;5012441;28;20527;-74
2022/03/02 05:05:14;;;;;;;52.78;27.73;;;;;;;;;;5011817;28;20094;-73
2022/03/02 05:07:42;;;;;;;55.75;28.25;;;;;;;;;;5012135;28;20734;-74
2022/03/02 05:10:09;;;;;;;57.17;28.17;;;;;;;;;;5029634;28;20046;-74
2022/03/02 05:12:35;;;;;;;58.20;28.80;;;;;;;;;;5011910;28;20045;-74
2022/03/02 05:15:02;;;;;;;52.30;27.95;;;;;;;;;;4995101;28;20065;-74
2022/03/02 05:17:29;;;;;;;52.50;27.77;;;;;;;;;;5011427;28;20178;-74
2022/03/02 05:19:55;;;;;;;60.33;29.67;;;;;;;;;;5011681;28;20034;-74
2022/03/02 05:22:21;;;;;;;56.30;28.65;;;;;;;;;;5011304;28;20389;-74
2022/03/02 05:24:47;;;;;;;60.83;28.38;;;;;;;;;;5011433;28;20166;-74
2022/03/02 05:27:13;;;;;;;58.30;29.08;;;;;;;;;;5010848;28;20049;-74
2022/03/02 05:29:39;;;;;;;60.58;30.05;;;;;;;;;;5011306;28;20128;-74
2022/03/02 05:32:06;;;;;;;59.33;29.70;;;;;;;;;;5028472;28;20049;-74
2022/03/02 05:34:32;;;;;;;59.17;29.60;;;;;;;;;;4995175;28;20042;-74
2022/03/02 05:36:58;;;;;;;63.38;30.23;;;;;;;;;;5011309;28;20413;-74
2022/03/02 05:39:24;;;;;;;60.22;29.48;;;;;;;;;;5011029;28;20494;-73
2022/03/02 05:41:51;;;;;;;56.33;29.38;;;;;;;;;;5011255;28;20037;-73
2022/03/02 05:44:17;;;;;;;57.42;29.05;;;;;;;;;;5010978;28;20033;-73
2022/03/02 05:46:43;;;;;;;60.28;29.88;;;;;;;;;;5011147;28;20434;-73
2022/03/02 05:49:10;;;;;;;60.80;30.50;;;;;;;;;;5011135;28;20110;-73
2022/03/02 05:51:36;;;;;;;62.45;29.67;;;;;;;;;;5010891;28;20087;-74
2022/03/02 05:54:03;;;;;;;67.50;31.58;;;;;;;;;;5011060;28;20037;-74
2022/03/02 05:56:30;;;;;;;61.33;30.00;;;;;;;;;;5029048;28;20121;-74
2022/03/02 05:58:56;;;;;;;55.65;28.83;;;;;;;;;;5028590;28;20042;-73
2022/03/02 06:01:22;;;;;;;67.13;31.80;;;;;;;;;;5010674;28;20055;-73
2022/03/02 06:03:49;;;;;;;60.08;30.98;;;;;;;;;;5010095;28;20041;-73
2022/03/02 06:06:16;;;;;;;59.72;30.73;;;;;;;;;;5028765;28;20046;-73
2022/03/02 06:08:42;;;;;;;69.78;32.20;;;;;;;;;;4994503;28;20041;-73
2022/03/02 06:11:08;;;;;;;68.03;33.03;;;;;;;;;;5010982;28;20437;-73
2022/03/02 06:13:34;;;;;;;61.60;31.23;;;;;;;;;;5010754;28;20132;-74
2022/03/02 06:16:01;;;;;;;64.70;31.25;;;;;;;;;;5010956;28;20124;-73
2022/03/02 06:18:27;;;;;;;67.57;31.77;;;;;;;;;;5010670;28;20178;-74
2022/03/02 06:21:00;;;;;;;69.15;32.45;;;;;;;;;;5028284;28;20037;-74
2022/03/02 06:23:27;;;;;;;66.38;32.05;;;;;;;;;;5010638;28;20048;-73
2022/03/02 06:25:53;;;;;;;69.82;32.70;;;;;;;;;;5010670;28;20512;-73
2022/03/02 06:28:19;;;;;;;64.65;31.80;;;;;;;;;;5010265;28;20516;-74
2022/03/02 06:30:45;;;;;;;67.88;30.95;;;;;;;;;;5010436;28;20059;-74
2022/03/02 06:33:14;;;;;;;73.10;32.55;;;;;;;;;;5010416;28;20502;-74
2022/03/02 06:35:42;;;;;;;69.03;31.75;;;;;;;;;;5010997;28;20094;-74
2022/03/02 06:38:08;;;;;;;65.60;31.52;;;;;;;;;;4994236;28;20056;-75
2022/03/02 06:40:34;;;;;;;66.38;31.02;;;;;;;;;;5027993;28;20041;-74
2022/03/02 06:43:02;;;;;;;68.22;31.30;;;;;;;;;;5028081;28;20044;-74
2022/03/02 06:45:36;;;;;;;69.75;33.08;;;;;;;;;;5009879;28;20045;-74
2022/03/02 06:48:13;;;;;;;67.07;31.92;;;;;;;;;;5027867;28;20077;-74
2022/03/02 06:50:41;;;;;;;76.13;32.85;;;;;;;;;;5027675;28;20045;-75
2022/03/02 06:53:11;;;;;;;68.25;32.55;;;;;;;;;;5009943;28;20049;-74
2022/03/02 06:55:39;;;;;;;68.47;31.65;;;;;;;;;;4993816;28;20049;-74
2022/03/02 06:58:08;;;;;;;68.32;32.85;;;;;;;;;;5009792;28;20044;-74
2022/03/02 07:00:34;;;;;;;70.53;32.97;;;;;;;;;;5027742;28;20150;-74
2022/03/02 07:03:10;;;;;;;68.35;32.15;;;;;;;;;;5027697;28;20495;-74
2022/03/02 07:05:37;;;;;;;67.00;33.35;;;;;;;;;;5010175;28;20402;-75
2022/03/02 07:08:04;;;;;;;64.53;30.77;;;;;;;;;;5010410;28;20060;-75
2022/03/02 07:10:35;;;;;;;59.75;29.42;;;;;;;;;;5010232;28;20045;-75
2022/03/02 07:13:05;;;;;;;58.47;29.02;;;;;;;;;;5009841;28;20080;-75
2022/03/02 07:15:31;;;;;;;49.17;27.45;;;;;;;;;;5009144;28;20132;-75
2022/03/02 07:18:02;;;;;;;53.88;27.98;;;;;;;;;;5009146;28;20106;-75
2022/03/02 07:20:28;;;;;;;52.05;26.58;;;;;;;;;;5010137;28;20042;-75
2022/03/02 07:22:56;;;;;;;49.30;26.70;;;;;;;;;;5010001;28;20559;-75
2022/03/02 07:25:25;;;;;;;49.60;27.00;;;;;;;;;;5009638;28;20042;-75
2022/03/02 07:27:51;;;;;;;46.70;26.77;;;;;;;;;;5026852;28;20061;-75
2022/03/02 07:30:17;;;;;;;46.90;26.33;;;;;;;;;;5009537;28;20060;-75
2022/03/02 07:32:45;;;;;;;45.78;26.27;;;;;;;;;;5009802;28;20072;-75
2022/03/02 07:35:12;;;;;;;45.92;26.52;;;;;;;;;;5009950;28;20573;-75
2022/03/02 07:37:39;;;;;;;47.50;26.23;;;;;;;;;;5009423;28;20352;-75
2022/03/02 07:40:06;;;;;;;46.30;26.15;;;;;;;;;;5009192;28;20482;-75
2022/03/02 07:42:33;;;;;;;44.47;25.40;;;;;;;;;;5009551;28;20041;-75
2022/03/02 07:44:59;;;;;;;43.97;25.92;;;;;;;;;;5009066;28;20042;-75
2022/03/02 07:47:26;;;;;;;40.65;24.30;;;;;;;;;;5009229;28;20049;-75
2022/03/02 07:49:52;;;;;;;40.53;25.00;;;;;;;;;;5009435;28;20463;-75
2022/03/02 07:52:18;;;;;;;43.55;25.15;;;;;;;;;;5009119;28;20101;-75
2022/03/02 07:54:47;;;;;;;39.90;24.20;;;;;;;;;;4993002;28;20056;-75
2022/03/02 07:57:15;;;;;;;43.35;25.35;;;;;;;;;;5026589;28;20043;-75
2022/03/02 07:59:44;;;;;;;42.15;25.70;;;;;;;;;;5009329;28;20564;-75
2022/03/02 08:02:10;;;;;;;41.45;24.75;;;;;;;;;;4992726;28;20571;-75
2022/03/02 08:04:37;;;;;;;40.00;25.65;;;;;;;;;;5009347;28;20041;-75
2022/03/02 08:07:03;;;;;;;38.95;24.50;;;;;;;;;;5026808;28;20536;-75
2022/03/02 08:09:31;;;;;;;37.17;23.08;;;;;;;;;;5009176;28;20041;-75
2022/03/02 08:11:58;;;;;;;44.17;25.40;;;;;;;;;;5008848;28;20109;-75
2022/03/02 08:14:24;;;;;;;42.10;23.95;;;;;;;;;;4993222;28;20053;-75
2022/03/02 08:16:51;;;;;;;41.92;24.27;;;;;;;;;;5008837;28;20041;-74
2022/03/02 08:19:18;;;;;;;42.95;24.40;;;;;;;;;;5008819;28;20095;-75
2022/03/02 08:21:47;;;;;;;39.85;24.27;;;;;;;;;;5009457;28;20049;-75
2022/03/02 08:24:14;;;;;;;37.95;23.40;;;;;;;;;;5008620;28;20037;-75
2022/03/02 08:26:40;;;;;;;37.90;22.88;;;;;;;;;;5010534;28;20042;-74
2022/03/02 08:29:11;;;;;;;43.65;24.23;;;;;;;;;;5011776;28;20084;-75
2022/03/02 08:31:39;;;;;;;36.75;22.65;;;;;;;;;;5012281;28;20129;-75
2022/03/02 08:34:06;;;;;;;37.72;23.75;;;;;;;;;;5012119;28;20045;-75
2022/03/02 08:36:34;;;;;;;34.42;22.13;;;;;;;;;;5012521;28;20490;-75
2022/03/02 08:39:04;;;;;;;36.33;22.17;;;;;;;;;;5012319;28;20045;-75
2022/03/02 08:41:31;;;;;;;37.22;23.27;;;;;;;;;;5012700;28;20546;-75
2022/03/02 08:43:57;;;;;;;34.00;22.63;;;;;;;;;;5012461;28;20501;-75
2022/03/02 08:46:24;;;;;;;34.10;21.95;;;;;;;;;;4996017;28;20037;-75
2022/03/02 08:48:50;;;;;;;33.58;22.65;;;;;;;;;;5030032;28;20043;-75
2022/03/02 08:51:18;;;;;;;32.55;21.75;;;;;;;;;;5011985;28;20486;-75
2022/03/02 08:53:44;;;;;;;31.92;22.10;;;;;;;;;;5029833;28;20101;-74
2022/03/02 08:56:10;;;;;;;34.22;21.77;;;;;;;;;;4995485;28;20508;-75
2022/03/02 08:58:38;;;;;;;32.22;21.52;;;;;;;;;;5012112;28;20126;-75
2022/03/02 09:01:04;;;;;;;30.50;20.67;;;;;;;;;;5012054;28;20410;-75
2022/03/02 09:03:34;;;;;;;30.20;20.58;;;;;;;;;;4995729;28;20046;-75
2022/03/02 09:06:01;;;;;;;29.65;20.42;;;;;;;;;;5011557;28;20052;-75
2022/03/02 09:08:28;;;;;;;30.77;20.27;;;;;;;;;;5011966;28;20074;-75
2022/03/02 09:10:54;;;;;;;29.08;20.38;;;;;;;;;;5011736;28;20042;-75
2022/03/02 09:13:20;;;;;;;31.02;20.80;;;;;;;;;;5029558;28;20038;-74
2022/03/02 09:15:46;;;;;;;28.17;20.08;;;;;;;;;;5011957;28;20048;-75
2022/03/02 09:18:12;;;;;;;27.70;19.95;;;;;;;;;;5029056;28;20070;-75
2022/03/02 09:20:41;;;;;;;26.75;19.50;;;;;;;;;;5029506;28;20038;-76
2022/03/02 09:23:08;;;;;;;27.02;18.77;;;;;;;;;;5011410;28;20054;-75
2022/03/02 09:25:37;;;;;;;26.33;18.67;;;;;;;;;;4995560;28;20086;-75
2022/03/02 09:28:04;;;;;;;27.58;19.48;;;;;;;;;;4994782;28;20083;-75
2022/03/02 09:30:30;;;;;;;26.27;18.92;;;;;;;;;;5011478;28;20056;-75
2022/03/02 09:32:59;;;;;;;27.17;19.52;;;;;;;;;;5011185;28;20069;-75
2022/03/02 09:35:26;;;;;;;23.13;17.75;;;;;;;;;;5011032;28;20128;-75
2022/03/02 09:37:54;;;;;;;24.95;18.55;;;;;;;;;;5010468;28;20046;-75
2022/03/02 09:40:22;;;;;;;24.70;18.20;;;;;;;;;;5011222;28;20053;-72
2022/03/02 09:43:14;;;;;;;25.42;18.33;;;;;;;;;;5011519;28;20048;-71
2022/03/02 09:45:43;;;;;;;26.15;18.40;;;;;;;;;;5011118;28;20057;-72
2022/03/02 09:48:12;;;;;;;23.05;17.48;;;;;;;;;;5028492;28;20058;-72
2022/03/02 09:50:39;;;;;;;25.70;18.33;;;;;;;;;;5029295;28;20045;-71
2022/03/02 09:53:08;;;;;;;26.00;18.00;;;;;;;;;;5010920;28;20110;-72
2022/03/02 09:55:35;;;;;;;24.73;17.90;;;;;;;;;;5011404;28;20467;-71
2022/03/02 09:58:03;;;;;;;24.58;17.35;;;;;;;;;;5010710;28;20045;-72
2022/03/02 10:00:29;;;;;;;23.45;17.02;;;;;;;;;;5028528;28;20091;-72
2022/03/02 10:03:00;;;;;;;24.08;17.88;;;;;;;;;;5010904;28;20042;-72
2022/03/02 10:05:27;;;;;;;23.77;17.15;;;;;;;;;;5028191;28;20178;-72
2022/03/02 10:07:55;;;;;;;24.92;17.33;;;;;;;;;;4994379;28;20124;-72
2022/03/02 10:10:23;;;;;;;22.50;16.67;;;;;;;;;;5011060;28;20042;-73
2022/03/02 10:12:50;;;;;;;24.98;16.10;;;;;;;;;;5011212;28;20050;-74
2022/03/02 10:15:16;;;;;;;23.98;17.20;;;;;;;;;;5010596;28;20082;-73
2022/03/02 10:17:44;;;;;;;25.40;17.20;;;;;;;;;;5028573;28;20553;-72
2022/03/02 10:20:11;;;;;;;26.05;17.20;;;;;;;;;;5028191;28;20042;-72
2022/03/02 10:22:40;;;;;;;23.30;16.88;;;;;;;;;;5010965;28;20517;-73
2022/03/02 10:25:08;;;;;;;24.95;16.92;;;;;;;;;;5010345;28;20034;-73
2022/03/02 10:27:57;;;;;;;24.15;16.48;;;;;;;;;;5010557;28;20049;-72
2022/03/02 10:30:25;;;;;;;23.13;16.90;;;;;;;;;;4994181;28;20098;-73
2022/03/02 10:32:53;;;;;;;24.17;15.80;;;;;;;;;;5028402;28;20145;-72
2022/03/02 10:35:22;;;;;;;26.17;16.60;;;;;;;;;;5009847;28;20060;-72
2022/03/02 10:38:03;;;;;;;22.75;15.85;;;;;;;;;;5010293;28;20049;-73
2022/03/02 10:40:32;;;;;;;22.58;16.27;;;;;;;;;;4993910;28;20045;-72
2022/03/02 10:43:00;;;;;;;23.58;15.45;;;;;;;;;;5010265;28;20041;-73
2022/03/02 10:45:26;;;;;;;22.60;14.65;;;;;;;;;;5010615;28;20394;-75
2022/03/02 10:47:52;;;;;;;21.90;15.32;;;;;;;;;;5010971;28;20091;-73
2022/03/02 10:50:20;;;;;;;21.23;14.45;;;;;;;;;;5010200;28;20098;-73
2022/03/02 10:52:50;;;;;;;23.00;15.70;;;;;;;;;;4994259;28;20045;-72
2022/03/02 10:55:16;;;;;;;22.52;15.63;;;;;;;;;;5027447;28;20041;-73
2022/03/02 10:57:45;;;;;;;22.58;15.35;;;;;;;;;;4993869;28;20045;-73
2022/03/02 11:00:13;;;;;;;20.80;14.70;;;;;;;;;;5009617;28;20045;-73
2022/03/02 11:02:43;;;;;;;22.27;15.52;;;;;;;;;;5028101;28;20041;-73
2022/03/02 11:05:15;;;;;;;20.63;14.30;;;;;;;;;;5028084;28;20533;-73
2022/03/02 11:07:42;;;;;;;20.67;14.30;;;;;;;;;;5010427;28;20085;-73
2022/03/02 11:10:09;;;;;;;21.27;15.07;;;;;;;;;;5009612;28;20051;-74
2022/03/02 11:12:37;;;;;;;20.58;14.82;;;;;;;;;;5010077;28;20124;-74
2022/03/02 11:15:05;;;;;;;24.48;15.38;;;;;;;;;;5009625;28;20049;-73
2022/03/02 11:17:32;;;;;;;20.25;14.80;;;;;;;;;;5009930;28;20099;-73
2022/03/02 11:19:58;;;;;;;21.70;15.25;;;;;;;;;;5028352;28;20098;-74
2022/03/02 11:22:28;;;;;;;20.88;14.70;;;;;;;;;;5010168;28;20081;-74
2022/03/02 11:24:55;;;;;;;19.90;14.13;;;;;;;;;;5027860;28;20041;-74
2022/03/02 11:27:41;;;;;;;23.00;15.77;;;;;;;;;;4993141;28;20049;-73
2022/03/02 11:30:16;;;;;;;22.85;15.38;;;;;;;;;;4989364;28;20107;-74
2022/03/02 11:32:45;;;;;;;21.10;15.07;;;;;;;;;;4987285;28;20072;-73
2022/03/02 11:35:14;;;;;;;20.90;15.00;;;;;;;;;;4986547;28;20393;-74
2022/03/02 11:37:41;;;;;;;21.17;15.60;;;;;;;;;;4986907;28;20053;-73
2022/03/02 11:40:09;;;;;;;21.17;15.85;;;;;;;;;;4986527;28;20046;-74
2022/03/02 11:42:38;;;;;;;21.42;15.38;;;;;;;;;;4987064;28;20046;-73
2022/03/02 11:45:04;;;;;;;21.55;13.88;;;;;;;;;;4988346;28;20109;-74
2022/03/02 11:47:38;;;;;;;20.73;14.35;;;;;;;;;;4986921;28;20061;-74
2022/03/02 11:50:05;;;;;;;21.88;15.02;;;;;;;;;;4986848;28;20049;-72
2022/03/02 11:52:33;;;;;;;20.50;15.23;;;;;;;;;;4986925;28;20054;-73
2022/03/02 11:55:05;;;;;;;21.23;15.25;;;;;;;;;;4987310;28;20049;-73
2022/03/02 11:57:32;;;;;;;22.42;15.60;;;;;;;;;;4986771;28;20449;-73
2022/03/02 12:00:08;;;;;;;21.40;14.40;;;;;;;;;;4986997;28;20495;-73
2022/03/02 12:02:45;;;;;;;20.48;13.75;;;;;;;;;;4989688;28;20125;-74
2022/03/02 12:05:12;;;;;;;20.48;14.73;;;;;;;;;;4990897;28;20510;-74
2022/03/02 12:07:38;;;;;;;21.92;14.88;;;;;;;;;;4989875;28;20051;-74
2022/03/02 12:10:05;;;;;;;20.98;15.15;;;;;;;;;;4989910;28;20093;-73
2022/03/02 12:12:32;;;;;;;20.48;14.82;;;;;;;;;;4989509;28;20050;-74
2022/03/02 12:15:03;;;;;;;20.17;14.27;;;;;;;;;;4973969;28;20460;-73
2022/03/02 12:17:33;;;;;;;21.08;15.32;;;;;;;;;;4973302;28;20035;-74
2022/03/02 12:20:00;;;;;;;20.63;14.60;;;;;;;;;;4991076;28;20122;-74
2022/03/02 12:22:30;;;;;;;22.02;14.48;;;;;;;;;;4990870;28;20568;-74
2022/03/02 12:24:58;;;;;;;21.92;14.85;;;;;;;;;;4989453;28;20046;-75
2022/03/02 12:27:24;;;;;;;21.05;14.85;;;;;;;;;;4990730;28;20054;-73
2022/03/02 12:30:01;;;;;;;19.40;13.90;;;;;;;;;;5011880;28;20082;-74
2022/03/02 12:32:29;;;;;;;20.70;13.35;;;;;;;;;;5011848;28;20045;-73
2022/03/02 12:34:55;;;;;;;20.77;13.90;;;;;;;;;;5012632;28;20566;-74
2022/03/02 12:37:22;;;;;;;21.88;13.93;;;;;;;;;;5011653;28;20042;-73
2022/03/02 12:39:49;;;;;;;22.05;14.20;;;;;;;;;;5012280;28;20046;-73
2022/03/02 12:42:16;;;;;;;21.40;13.93;;;;;;;;;;5029419;28;20112;-74
2022/03/02 12:44:46;;;;;;;20.58;13.65;;;;;;;;;;5030092;28;20040;-73
2022/03/02 12:47:14;;;;;;;18.67;12.65;;;;;;;;;;5011646;28;20125;-73
2022/03/02 12:49:41;;;;;;;20.33;13.82;;;;;;;;;;5012425;28;20053;-73
2022/03/02 12:52:08;;;;;;;19.55;13.48;;;;;;;;;;5012311;28;20052;-73
2022/03/02 12:54:35;;;;;;;18.52;13.02;;;;;;;;;;5029610;28;20052;-73
2022/03/02 12:57:03;;;;;;;19.85;14.07;;;;;;;;;;5029375;28;20053;-73
2022/03/02 12:59:30;;;;;;;19.40;13.57;;;;;;;;;;5011797;28;20389;-73
2022/03/02 13:01:56;;;;;;;20.38;13.50;;;;;;;;;;5011903;28;20045;-72
2022/03/02 13:04:29;;;;;;;20.70;14.10;;;;;;;;;;5029528;28;20073;-73
2022/03/02 13:07:00;;;;;;;18.95;13.20;;;;;;;;;;5029634;28;20033;-73
2022/03/02 13:09:29;;;;;;;22.75;14.20;;;;;;;;;;4995429;28;20456;-73
2022/03/02 13:11:55;;;;;;;21.40;14.57;;;;;;;;;;5011505;28;20041;-73
2022/03/02 13:14:31;;;;;;;22.70;14.60;;;;;;;;;;4978291;28;20049;-73
2022/03/02 13:16:57;;;;;;;;;;;;;;;;;;5030165;28;20116;-73
2022/03/02 13:19:23;;;;;;;22.17;13.18;;;;;;;;;;5029308;28;20004;-74
2022/03/02 13:21:59;;;;;;;19.98;13.55;;;;;;;;;;5011533;28;20052;-73
2022/03/02 13:24:25;;;;;;;20.70;13.30;;;;;;;;;;5011213;28;20056;-74
2022/03/02 13:26:58;;;;;;;21.15;12.85;;;;;;;;;;4994748;28;20041;-73
2022/03/02 13:29:29;;;;;;;19.83;11.27;;;;;;;;;;5010542;28;20067;-74
2022/03/02 13:31:56;;;;;;;21.02;13.18;;;;;;;;;;5011586;28;20081;-72
2022/03/02 13:34:23;;;;;;;25.55;13.60;;;;;;;;;;4995109;28;20046;-73
2022/03/02 13:36:50;;;;;;;22.23;13.95;;;;;;;;;;5011339;28;20057;-73
2022/03/02 13:39:19;;;;;;;21.88;13.15;;;;;;;;;;5011086;28;20042;-73
2022/03/02 13:41:47;;;;;;;21.35;11.52;;;;;;;;;;5029116;28;20077;-72
2022/03/02 13:44:27;;;;;;;23.05;13.68;;;;;;;;;;5010830;28;20045;-73
2022/03/02 13:47:08;;;;;;;22.13;13.10;;;;;;;;;;5011297;28;20045;-73
2022/03/02 13:49:50;;;;;;;23.50;14.80;;;;;;;;;;5011112;28;20064;-73
2022/03/02 13:52:36;;;;;;;28.42;16.40;;;;;;;;;;5010785;28;20037;-73
2022/03/02 13:55:11;;;;;;;25.20;13.85;;;;;;;;;;5011334;28;20421;-73
2022/03/02 13:57:37;;;;;;;23.33;13.77;;;;;;;;;;4994430;28;20102;-73
2022/03/02 14:00:19;;;;;;;23.75;12.38;;;;;;;;;;5028902;28;20326;-73
2022/03/02 14:02:49;;;;;;;25.38;14.35;;;;;;;;;;5029155;28;20120;-73
2022/03/02 14:05:17;;;;;;;24.65;14.02;;;;;;;;;;5010753;28;20044;-73
2022/03/02 14:07:44;;;;;;;23.67;14.93;;;;;;;;;;4978582;28;20054;-74
2022/03/02 14:10:14;;;;;;;24.13;14.70;;;;;;;;;;4994867;28;20077;-73
2022/03/02 14:12:52;;;;;;;24.95;14.52;;;;;;;;;;5010815;28;20125;-73
2022/03/02 14:15:19;;;;;;;22.88;14.05;;;;;;;;;;4994509;28;20045;-73
2022/03/02 14:17:45;;;;;;;27.42;14.82;;;;;;;;;;4994595;28;20055;-73
2022/03/02 14:20:11;;;;;;;24.42;14.25;;;;;;;;;;5010595;28;20121;-73